createdAt,value
2018-07-08T00:01:39.166Z,18.13
2018-07-08T00:04:08.498Z,18.07
2018-07-08T00:06:38.279Z,17.99
2018-07-08T00:09:08.276Z,18.10
2018-07-08T00:11:37.979Z,18.03
2018-07-08T00:14:07.518Z,18.04
2018-07-08T00:16:37.061Z,17.99
2018-07-08T00:19:06.423Z,18.03
2018-07-08T00:21:35.934Z,17.98
2018-07-08T00:24:05.299Z,18.03
2018-07-08T00:26:34.872Z,17.90
2018-07-08T00:29:04.689Z,17.90
2018-07-08T00:31:34.172Z,17.89
2018-07-08T00:34:03.535Z,17.81
2018-07-08T00:36:33.191Z,17.79
2018-07-08T00:39:21.002Z,17.66
2018-07-08T00:41:50.318Z,17.53
2018-07-08T00:44:19.712Z,17.68
2018-07-08T00:46:48.966Z,17.77
2018-07-08T00:49:18.914Z,17.69
2018-07-08T00:51:48.200Z,17.78
2018-07-08T00:54:17.613Z,17.76
2018-07-08T00:56:47.024Z,17.89
2018-07-08T00:59:16.419Z,17.79
2018-07-08T01:01:46.088Z,17.98
2018-07-08T01:04:15.342Z,18.10
2018-07-08T01:06:44.746Z,18.13
2018-07-08T01:09:14.246Z,18.08
2018-07-08T01:11:44.210Z,17.98
2018-07-08T01:14:13.540Z,17.84
2018-07-08T01:16:42.985Z,17.85
2018-07-08T01:19:12.409Z,17.90
2018-07-08T01:21:42.003Z,17.61
2018-07-08T01:24:11.414Z,17.67
2018-07-08T01:26:40.901Z,17.86
2018-07-08T01:29:10.423Z,17.77
2018-07-08T01:31:40.085Z,17.75
2018-07-08T01:34:10.140Z,17.67
2018-07-08T01:36:39.800Z,17.61
2018-07-08T01:39:09.252Z,17.64
2018-07-08T01:41:38.947Z,17.81
2018-07-08T01:44:08.471Z,17.70
2018-07-08T01:46:38.470Z,17.73
2018-07-08T01:49:07.822Z,17.57
2018-07-08T01:51:37.385Z,17.65
2018-07-08T01:54:06.892Z,17.68
2018-07-08T01:56:36.724Z,17.65
2018-07-08T01:59:06.194Z,17.50
2018-07-08T02:01:35.547Z,17.61
2018-07-08T02:04:04.996Z,17.73
2018-07-08T02:06:34.502Z,17.75
2018-07-08T02:09:03.944Z,17.71
2018-07-08T02:11:33.456Z,17.74
2018-07-08T02:14:02.892Z,17.60
2018-07-08T02:16:32.554Z,17.63
2018-07-08T02:19:02.251Z,17.73
2018-07-08T02:21:31.718Z,17.63
2018-07-08T02:24:01.266Z,17.64
2018-07-08T02:26:31.239Z,17.72
2018-07-08T02:29:00.612Z,17.80
2018-07-08T02:31:30.029Z,17.79
2018-07-08T02:33:59.577Z,17.74
2018-07-08T02:36:29.243Z,17.61
2018-07-08T02:38:58.914Z,17.73
2018-07-08T02:41:28.860Z,17.84
2018-07-08T02:43:58.162Z,17.74
2018-07-08T02:46:27.432Z,17.88
2018-07-08T02:48:56.761Z,17.86
2018-07-08T02:51:26.113Z,17.88
2018-07-08T02:53:55.486Z,17.69
2018-07-08T02:56:24.927Z,17.89
2018-07-08T02:58:54.582Z,17.95
2018-07-08T03:01:24.678Z,17.78
2018-07-08T03:03:54.162Z,17.97
2018-07-08T03:06:23.434Z,18.04
2018-07-08T03:08:52.741Z,17.81
2018-07-08T03:11:22.035Z,17.96
2018-07-08T03:13:51.323Z,17.95
2018-07-08T03:16:20.603Z,17.96
2018-07-08T03:18:49.911Z,17.96
2018-07-08T03:21:19.172Z,17.83
2018-07-08T03:23:48.425Z,17.88
2018-07-08T03:26:18.138Z,17.82
2018-07-08T03:28:47.396Z,17.66
2018-07-08T03:31:16.903Z,17.79
2018-07-08T03:33:46.321Z,17.66
2018-07-08T03:36:15.587Z,17.62
2018-07-08T03:38:44.871Z,17.67
2018-07-08T03:41:14.170Z,17.75
2018-07-08T03:43:43.539Z,17.74
2018-07-08T03:46:12.956Z,17.80
2018-07-08T03:48:42.926Z,17.87
2018-07-08T03:51:12.263Z,17.78
2018-07-08T03:53:41.557Z,17.79
2018-07-08T03:56:10.825Z,17.61
2018-07-08T03:58:40.067Z,17.84
2018-07-08T04:01:09.366Z,17.91
2018-07-08T04:03:38.628Z,17.79
2018-07-08T04:06:07.927Z,17.78
2018-07-08T04:08:37.238Z,17.72
2018-07-08T04:11:07.631Z,17.70
2018-07-08T04:13:36.893Z,17.77
2018-07-08T04:16:07.061Z,17.86
2018-07-08T04:18:36.341Z,17.75
2018-07-08T04:21:05.619Z,17.70
2018-07-08T04:23:34.874Z,17.71
2018-07-08T04:26:04.146Z,17.67
2018-07-08T04:28:34.011Z,17.79
2018-07-08T04:31:03.289Z,17.79
2018-07-08T04:33:32.957Z,17.73
2018-07-08T04:36:02.212Z,17.63
2018-07-08T04:38:31.499Z,17.75
2018-07-08T04:41:00.791Z,17.96
2018-07-08T04:43:30.116Z,18.04
2018-07-08T04:45:59.362Z,18.06
2018-07-08T04:48:28.657Z,18.18
2018-07-08T04:50:57.678Z,18.42
2018-07-08T04:53:26.962Z,18.42
2018-07-08T04:55:56.399Z,18.47
2018-07-08T04:58:25.430Z,18.66
2018-07-08T05:00:54.713Z,18.59
2018-07-08T05:03:24.034Z,18.31
2018-07-08T05:05:53.347Z,18.52
2018-07-08T05:08:22.621Z,18.79
2018-07-08T05:10:51.937Z,18.79
2018-07-08T05:13:21.207Z,18.97
2018-07-08T05:15:50.472Z,18.95
2018-07-08T05:18:20.165Z,18.88
2018-07-08T05:20:49.457Z,18.84
2018-07-08T05:23:18.710Z,18.80
2018-07-08T05:25:48.043Z,18.71
2018-07-08T05:28:17.338Z,19.01
2018-07-08T05:30:47.249Z,19.19
2018-07-08T05:33:16.535Z,19.51
2018-07-08T05:35:45.854Z,19.47
2018-07-08T05:38:15.095Z,19.38
2018-07-08T05:40:44.563Z,19.56
2018-07-08T05:43:13.838Z,19.66
2018-07-08T05:45:43.098Z,19.92
2018-07-08T05:48:12.481Z,19.80
2018-07-08T05:50:41.760Z,20.03
2018-07-08T05:53:11.041Z,20.18
2018-07-08T05:55:40.402Z,20.45
2018-07-08T05:58:09.700Z,20.54
2018-07-08T06:00:39.063Z,20.48
2018-07-08T06:03:08.792Z,20.35
2018-07-08T06:05:38.089Z,20.37
2018-07-08T06:08:07.474Z,20.27
2018-07-08T06:10:36.829Z,20.26
2018-07-08T06:13:06.269Z,20.08
2018-07-08T06:15:35.597Z,20.03
2018-07-08T06:18:04.928Z,20.31
2018-07-08T06:20:34.211Z,20.64
2018-07-08T06:23:03.488Z,20.73
2018-07-08T06:25:33.346Z,21.02
2018-07-08T06:28:02.672Z,20.86
2018-07-08T06:30:31.971Z,20.36
2018-07-08T06:33:01.949Z,20.60
2018-07-08T06:35:31.191Z,20.86
2018-07-08T06:38:00.473Z,20.89
2018-07-08T06:40:29.763Z,20.91
2018-07-08T06:42:59.007Z,20.87
2018-07-08T06:45:28.312Z,21.13
2018-07-08T06:47:58.048Z,21.28
2018-07-08T06:50:27.432Z,21.45
2018-07-08T06:52:56.704Z,21.57
2018-07-08T06:55:26.028Z,21.58
2018-07-08T06:57:55.321Z,21.42
2018-07-08T07:00:24.615Z,21.76
2018-07-08T07:02:53.888Z,22.07
2018-07-08T07:05:23.158Z,22.23
2018-07-08T07:07:52.434Z,22.10
2018-07-08T07:10:22.228Z,22.17
2018-07-08T07:12:51.459Z,22.28
2018-07-08T07:15:20.723Z,22.51
2018-07-08T07:17:50.026Z,22.27
2018-07-08T07:20:19.300Z,22.23
2018-07-08T07:22:48.551Z,22.50
2018-07-08T07:25:17.838Z,22.29
2018-07-08T07:27:47.136Z,22.16
2018-07-08T07:30:16.447Z,22.14
2018-07-08T07:32:46.091Z,22.20
2018-07-08T07:35:15.370Z,22.49
2018-07-08T07:37:44.628Z,22.86
2018-07-08T07:40:13.691Z,23.35
2018-07-08T07:42:43.009Z,23.29
2018-07-08T07:45:12.343Z,23.36
2018-07-08T07:47:41.672Z,23.43
2018-07-08T07:50:10.947Z,23.12
2018-07-08T07:52:40.228Z,23.20
2018-07-08T07:55:10.016Z,23.64
2018-07-08T07:57:39.362Z,23.61
2018-07-08T08:00:08.718Z,23.59
2018-07-08T08:02:38.036Z,23.84
2018-07-08T08:05:07.319Z,23.80
2018-07-08T08:07:36.646Z,23.90
2018-07-08T08:10:06.037Z,23.80
2018-07-08T08:12:35.412Z,23.93
2018-07-08T08:15:04.831Z,23.88
2018-07-08T08:17:34.367Z,24.24
2018-07-08T08:20:03.733Z,24.23
2018-07-08T08:22:33.039Z,24.52
2018-07-08T08:25:02.371Z,24.73
2018-07-08T08:27:31.669Z,24.73
2018-07-08T08:30:00.930Z,24.89
2018-07-08T08:32:30.275Z,25.00
2018-07-08T08:35:29.710Z,24.95
2018-07-08T08:37:59.190Z,25.15
2018-07-08T08:40:29.790Z,25.31
2018-07-08T08:42:59.081Z,25.09
2018-07-08T08:45:29.660Z,25.10
2018-07-08T08:47:58.974Z,25.34
2018-07-08T08:50:28.317Z,25.38
2018-07-08T08:52:57.618Z,25.62
2018-07-08T08:55:26.948Z,25.37
2018-07-08T08:57:56.218Z,25.14
2018-07-08T09:00:25.918Z,25.51
2018-07-08T09:02:55.201Z,25.65
2018-07-08T09:05:24.537Z,25.82
2018-07-08T09:07:53.894Z,25.98
2018-07-08T09:10:23.342Z,25.71
2018-07-08T09:12:52.667Z,25.75
2018-07-08T09:15:21.994Z,25.71
2018-07-08T09:17:51.333Z,25.96
2018-07-08T09:20:20.727Z,25.95
2018-07-08T09:22:50.313Z,26.16
2018-07-08T09:25:19.696Z,26.36
2018-07-08T09:27:49.030Z,26.17
2018-07-08T09:30:18.364Z,26.18
2018-07-08T09:32:47.670Z,26.29
2018-07-08T09:35:16.969Z,26.39
2018-07-08T09:37:46.357Z,26.34
2018-07-08T09:40:15.777Z,26.81
2018-07-08T09:42:45.083Z,27.20
2018-07-08T09:45:14.901Z,27.38
2018-07-08T09:47:44.188Z,27.26
2018-07-08T09:50:13.519Z,27.26
2018-07-08T09:52:42.869Z,27.56
2018-07-08T09:55:12.222Z,27.45
2018-07-08T09:57:41.601Z,27.57
2018-07-08T10:00:10.928Z,28.00
2018-07-08T10:02:40.280Z,27.96
2018-07-08T10:05:09.580Z,27.82
2018-07-08T10:07:39.295Z,27.65
2018-07-08T10:10:08.576Z,27.93
2018-07-08T10:12:37.880Z,28.00
2018-07-08T10:15:07.207Z,28.25
2018-07-08T10:17:36.521Z,28.41
2018-07-08T10:20:05.934Z,28.14
2018-07-08T10:22:35.243Z,28.58
2018-07-08T10:25:04.574Z,28.62
2018-07-08T10:28:15.863Z,28.73
2018-07-08T10:30:45.363Z,28.93
2018-07-08T10:33:14.672Z,28.95
2018-07-08T10:36:00.422Z,28.91
2018-07-08T10:38:29.714Z,29.08
2018-07-08T10:40:59.056Z,29.37
2018-07-08T10:43:28.301Z,29.67
2018-07-08T10:45:57.775Z,29.63
2018-07-08T10:48:27.113Z,29.29
2018-07-08T10:50:56.534Z,29.36
2018-07-08T10:53:25.854Z,29.62
2018-07-08T10:55:55.140Z,29.72
2018-07-08T10:58:24.494Z,29.54
2018-07-08T11:00:53.834Z,29.39
2018-07-08T11:03:23.168Z,29.74
2018-07-08T11:05:52.606Z,29.72
2018-07-08T11:08:21.894Z,29.67
2018-07-08T11:10:51.210Z,29.71
2018-07-08T11:13:20.689Z,29.62
2018-07-08T11:15:50.085Z,29.92
2018-07-08T11:18:19.735Z,30.33
2018-07-08T11:20:49.110Z,30.04
2018-07-08T11:23:18.414Z,30.02
2018-07-08T11:25:47.734Z,30.02
2018-07-08T11:28:17.233Z,30.19
2018-07-08T11:30:46.647Z,30.09
2018-07-08T11:33:15.991Z,30.21
2018-07-08T11:35:45.796Z,30.28
2018-07-08T11:38:16.025Z,30.57
2018-07-08T11:40:45.390Z,30.71
2018-07-08T11:43:14.855Z,30.46
2018-07-08T11:45:44.212Z,30.59
2018-07-08T11:48:13.695Z,30.96
2018-07-08T11:50:43.175Z,31.09
2018-07-08T11:53:12.275Z,30.87
2018-07-08T11:55:41.666Z,30.70
2018-07-08T11:58:11.093Z,30.92
2018-07-08T12:00:40.509Z,30.98
2018-07-08T12:03:09.843Z,30.90
2018-07-08T12:05:39.768Z,30.96
2018-07-08T12:08:09.097Z,31.06
2018-07-08T12:10:38.256Z,31.20
2018-07-08T12:13:08.100Z,30.65
2018-07-08T12:15:37.452Z,30.65
2018-07-08T12:18:07.117Z,31.02
2018-07-08T12:20:36.868Z,30.83
2018-07-08T12:23:06.190Z,31.19
2018-07-08T12:25:35.762Z,31.04
2018-07-08T12:28:05.239Z,31.03
2018-07-08T12:30:34.543Z,30.94
2018-07-08T12:33:04.002Z,30.83
2018-07-08T12:35:33.460Z,30.90
2018-07-08T12:38:02.936Z,31.15
2018-07-08T12:40:32.311Z,30.69
2018-07-08T12:43:01.692Z,30.65
2018-07-08T12:45:31.185Z,30.61
2018-07-08T12:48:00.618Z,31.04
2018-07-08T12:50:29.940Z,30.85
2018-07-08T12:52:59.256Z,30.57
2018-07-08T12:55:29.077Z,30.64
2018-07-08T12:57:58.611Z,30.71
2018-07-08T13:00:27.941Z,30.94
2018-07-08T13:02:57.330Z,31.16
2018-07-08T13:05:26.648Z,31.16
2018-07-08T13:07:56.056Z,31.12
2018-07-08T13:10:25.386Z,31.21
2018-07-08T13:12:54.766Z,31.28
2018-07-08T13:15:24.721Z,31.38
2018-07-08T13:17:54.111Z,31.43
2018-07-08T13:20:24.062Z,31.58
2018-07-08T13:22:53.570Z,31.46
2018-07-08T13:25:23.080Z,31.36
2018-07-08T13:27:52.458Z,31.48
2018-07-08T13:30:22.180Z,31.45
2018-07-08T13:32:51.733Z,31.01
2018-07-08T13:35:21.310Z,31.24
2018-07-08T13:37:50.922Z,31.15
2018-07-08T13:40:20.365Z,31.48
2018-07-08T13:42:49.997Z,31.58
2018-07-08T13:45:19.564Z,31.46
2018-07-08T13:47:49.205Z,31.31
2018-07-08T13:50:18.930Z,31.21
2018-07-08T13:52:48.429Z,31.39
2018-07-08T13:55:18.104Z,30.99
2018-07-08T13:57:47.487Z,30.98
2018-07-08T14:00:16.863Z,30.83
2018-07-08T14:02:46.213Z,30.92
2018-07-08T14:05:15.696Z,31.20
2018-07-08T14:07:45.451Z,31.12
2018-07-08T14:10:14.918Z,31.14
2018-07-08T14:12:44.313Z,31.33
2018-07-08T14:15:13.733Z,31.39
2018-07-08T14:17:43.237Z,31.24
2018-07-08T14:20:13.005Z,30.97
2018-07-08T14:22:42.880Z,31.20
2018-07-08T14:25:12.432Z,31.11
2018-07-08T14:27:42.421Z,31.10
2018-07-08T14:30:11.900Z,31.05
2018-07-08T14:32:41.392Z,30.84
2018-07-08T14:35:10.875Z,30.98
2018-07-08T14:37:40.239Z,31.05
2018-07-08T14:40:09.611Z,31.14
2018-07-08T14:42:38.973Z,30.83
2018-07-08T14:45:08.827Z,30.65
2018-07-08T14:47:38.879Z,30.70
2018-07-08T14:50:08.371Z,30.75
2018-07-08T14:52:37.747Z,30.73
2018-07-08T14:55:07.018Z,30.37
2018-07-08T14:57:36.408Z,30.40
2018-07-08T15:00:05.881Z,30.41
2018-07-08T15:02:35.213Z,30.48
2018-07-08T15:05:04.654Z,30.41
2018-07-08T15:07:33.954Z,30.41
2018-07-08T15:10:03.259Z,30.01
2018-07-08T15:12:32.558Z,29.81
2018-07-08T15:15:01.946Z,30.00
2018-07-08T15:17:31.337Z,29.71
2018-07-08T15:20:00.752Z,29.85
2018-07-08T15:22:30.058Z,29.99
2018-07-08T15:24:59.408Z,29.90
2018-07-08T15:27:28.786Z,30.03
2018-07-08T15:29:58.077Z,30.10
2018-07-08T15:32:33.552Z,29.71
2018-07-08T15:35:03.244Z,29.90
2018-07-08T15:37:32.569Z,29.76
2018-07-08T15:40:01.911Z,29.76
2018-07-08T15:42:31.259Z,29.60
2018-07-08T15:45:00.595Z,29.58
2018-07-08T15:47:29.980Z,29.46
2018-07-08T15:49:59.405Z,29.72
2018-07-08T15:52:28.933Z,29.57
2018-07-08T15:54:58.387Z,29.46
2018-07-08T15:57:27.726Z,29.62
2018-07-08T15:59:57.103Z,29.57
2018-07-08T16:02:26.376Z,29.44
2018-07-08T16:04:55.808Z,29.37
2018-07-08T16:07:25.195Z,29.53
2018-07-08T16:09:54.636Z,29.37
2018-07-08T16:12:23.974Z,29.11
2018-07-08T16:14:53.316Z,28.99
2018-07-08T16:17:23.095Z,28.98
2018-07-08T16:19:52.723Z,28.96
2018-07-08T16:22:22.091Z,28.98
2018-07-08T16:24:51.723Z,29.16
2018-07-08T16:27:21.030Z,29.30
2018-07-08T16:29:50.507Z,29.30
2018-07-08T16:32:19.895Z,29.26
2018-07-08T16:34:50.059Z,29.16
2018-07-08T16:37:19.433Z,28.71
2018-07-08T16:39:49.011Z,28.61
2018-07-08T16:42:18.348Z,28.80
2018-07-08T16:44:47.807Z,28.57
2018-07-08T16:47:17.596Z,28.39
2018-07-08T16:49:47.182Z,28.33
2018-07-08T16:52:16.603Z,28.39
2018-07-08T16:54:46.000Z,28.43
2018-07-08T16:57:15.313Z,28.19
2018-07-08T16:59:44.684Z,27.96
2018-07-08T17:02:14.476Z,28.03
2018-07-08T17:04:43.880Z,27.97
2018-07-08T17:07:13.189Z,28.16
2018-07-08T17:09:42.578Z,28.24
2018-07-08T17:12:11.899Z,28.04
2018-07-08T17:14:41.305Z,28.18
2018-07-08T17:17:10.651Z,27.78
2018-07-08T17:19:40.132Z,27.68
2018-07-08T17:22:09.433Z,27.51
2018-07-08T17:24:38.899Z,27.61
2018-07-08T17:27:08.251Z,27.78
2018-07-08T17:29:37.670Z,27.62
2018-07-08T17:32:07.040Z,27.71
2018-07-08T17:34:36.334Z,27.49
2018-07-08T17:37:05.643Z,27.51
2018-07-08T17:39:36.369Z,27.60
2018-07-08T17:42:05.830Z,27.45
2018-07-08T17:44:35.215Z,27.13
2018-07-08T17:47:04.807Z,26.98
2018-07-08T17:49:34.217Z,26.83
2018-07-08T17:52:03.605Z,26.60
2018-07-08T17:54:33.123Z,26.56
2018-07-08T17:57:02.423Z,26.54
2018-07-08T17:59:31.751Z,26.55
2018-07-08T18:02:01.111Z,26.43
2018-07-08T18:04:30.424Z,26.41
2018-07-08T18:06:59.741Z,26.40
2018-07-08T18:09:29.820Z,26.45
2018-07-08T18:11:59.203Z,26.32
2018-07-08T18:14:28.588Z,26.18
2018-07-08T18:16:58.013Z,25.84
2018-07-08T18:19:28.142Z,25.56
2018-07-08T18:21:57.646Z,25.36
2018-07-08T18:24:26.998Z,25.55
2018-07-08T18:26:56.324Z,25.49
2018-07-08T18:29:25.644Z,25.48
2018-07-08T18:31:55.179Z,25.40
2018-07-08T18:34:24.462Z,25.24
2018-07-08T18:36:53.881Z,24.90
2018-07-08T18:39:22.938Z,24.75
2018-07-08T18:41:52.240Z,24.73
2018-07-08T18:44:21.669Z,24.52
2018-07-08T18:46:50.974Z,24.56
2018-07-08T18:49:20.369Z,24.36
2018-07-08T18:51:49.711Z,24.56
2018-07-08T18:54:19.496Z,24.58
2018-07-08T18:56:48.799Z,24.46
2018-07-08T18:59:18.288Z,24.26
2018-07-08T19:01:47.550Z,24.23
2018-07-08T19:04:16.892Z,24.03
2018-07-08T19:06:46.296Z,24.04
2018-07-08T19:09:15.824Z,23.81
2018-07-08T19:11:45.039Z,23.75
2018-07-08T19:14:14.371Z,23.88
2018-07-08T19:16:43.911Z,23.78
2018-07-08T19:19:13.217Z,23.62
2018-07-08T19:21:42.591Z,23.47
2018-07-08T19:24:11.996Z,23.48
2018-07-08T19:26:41.356Z,23.51
2018-07-08T19:29:10.746Z,23.55
2018-07-08T19:31:41.233Z,23.39
2018-07-08T19:34:10.593Z,23.32
2018-07-08T19:36:40.062Z,23.20
2018-07-08T19:39:10.848Z,23.15
2018-07-08T19:41:41.372Z,23.12
2018-07-08T19:44:10.644Z,23.06
2018-07-08T19:46:40.148Z,22.93
2018-07-08T19:49:09.485Z,22.75
2018-07-08T19:51:38.884Z,22.74
2018-07-08T19:54:08.262Z,22.77
2018-07-08T19:56:37.593Z,22.72
2018-07-08T19:59:06.957Z,22.50
2018-07-08T20:01:36.841Z,22.39
2018-07-08T20:04:06.319Z,22.37
2018-07-08T20:06:35.937Z,22.45
2018-07-08T20:09:06.501Z,22.22
2018-07-08T20:11:35.861Z,22.04
2018-07-08T20:14:05.260Z,21.96
2018-07-08T20:16:34.595Z,21.96
2018-07-08T20:19:03.994Z,21.93
2018-07-08T20:21:33.494Z,21.95
2018-07-08T20:24:02.904Z,21.79
2018-07-08T20:26:32.318Z,21.76
2018-07-08T20:29:01.880Z,21.47
2018-07-08T20:31:31.295Z,21.73
2018-07-08T20:34:00.658Z,21.69
2018-07-08T20:36:30.639Z,21.58
2018-07-08T20:39:00.144Z,21.52
2018-07-08T20:41:29.503Z,21.43
2018-07-08T20:43:59.007Z,21.23
2018-07-08T20:46:28.577Z,21.20
2018-07-08T20:48:58.014Z,21.33
2018-07-08T20:51:27.395Z,21.32
2018-07-08T20:53:57.394Z,20.98
2018-07-08T20:56:26.682Z,21.09
2018-07-08T20:58:56.012Z,21.03
2018-07-08T21:01:25.555Z,20.72
2018-07-08T21:03:54.927Z,20.73
2018-07-08T21:06:24.560Z,20.38
2018-07-08T21:08:54.224Z,20.46
2018-07-08T21:11:23.536Z,20.50
2018-07-08T21:13:53.761Z,20.30
2018-07-08T21:16:23.166Z,20.40
2018-07-08T21:18:52.789Z,20.40
2018-07-08T21:21:22.086Z,20.49
2018-07-08T21:23:51.255Z,20.38
2018-07-08T21:26:20.567Z,20.36
2018-07-08T21:28:50.361Z,20.31
2018-07-08T21:31:20.238Z,20.24
2018-07-08T21:33:49.490Z,20.23
2018-07-08T21:36:18.809Z,20.32
2018-07-08T21:38:48.141Z,20.36
2018-07-08T21:41:18.046Z,20.28
2018-07-08T21:43:47.360Z,20.12
2018-07-08T21:46:16.655Z,19.96
2018-07-08T21:48:46.006Z,20.09
2018-07-08T21:51:15.329Z,20.18
2018-07-08T21:53:44.976Z,19.99
2018-07-08T21:56:15.064Z,19.89
2018-07-08T21:58:44.892Z,20.04
2018-07-08T22:01:16.312Z,20.01
2018-07-08T22:03:46.441Z,19.82
2018-07-08T22:06:16.563Z,19.78
2018-07-08T22:08:46.167Z,19.84
2018-07-08T22:11:15.806Z,20.04
2018-07-08T22:13:45.370Z,19.74
2018-07-08T22:16:14.671Z,19.87
2018-07-08T22:18:44.053Z,20.03
2018-07-08T22:21:13.379Z,19.88
2018-07-08T22:23:42.667Z,19.94
2018-07-08T22:26:12.007Z,19.79
2018-07-08T22:28:41.324Z,19.54
2018-07-08T22:31:10.627Z,19.50
2018-07-08T22:33:40.327Z,19.53
2018-07-08T22:36:09.618Z,19.40
2018-07-08T22:38:38.981Z,19.46
2018-07-08T22:41:08.320Z,19.43
2018-07-08T22:43:37.651Z,19.27
2018-07-08T22:46:06.971Z,19.12
2018-07-08T22:48:36.407Z,19.18
2018-07-08T22:51:05.747Z,19.23
2018-07-08T22:53:35.009Z,19.33
2018-07-08T22:56:04.554Z,19.43
2018-07-08T22:58:33.847Z,19.35
2018-07-08T23:01:20.303Z,19.32
2018-07-08T23:03:59.161Z,19.23
2018-07-08T23:06:28.547Z,19.22
2018-07-08T23:08:58.209Z,19.15
2018-07-08T23:11:28.373Z,19.23
2018-07-08T23:13:58.705Z,19.14
2018-07-08T23:16:28.992Z,18.93
2018-07-08T23:18:58.330Z,19.10
2018-07-08T23:21:27.645Z,18.96
2018-07-08T23:23:56.930Z,19.13
2018-07-08T23:26:26.211Z,19.06
2018-07-08T23:28:55.534Z,18.98
2018-07-08T23:31:25.172Z,18.95
2018-07-08T23:33:54.711Z,18.91
2018-07-08T23:36:24.112Z,18.99
2018-07-08T23:38:53.400Z,18.97
2018-07-08T23:41:22.924Z,18.89
2018-07-08T23:43:52.940Z,18.78
2018-07-08T23:46:22.213Z,18.84
2018-07-08T23:48:51.460Z,18.89
2018-07-08T23:51:20.739Z,18.86
2018-07-08T23:53:50.029Z,18.80
2018-07-08T23:56:19.346Z,18.74
2018-07-08T23:58:48.738Z,18.70
